sensor_id;sensor_type;location;lat;lon;timestamp;P1;durP1;ratioP1;P2;durP2;ratioP2
70800;SDS011;59616;52.170;5.386;2022-07-29T00:00:57;3.90;;;1.30;;
70800;SDS011;59616;52.170;5.386;2022-07-29T00:03:24;3.25;;;1.48;;
70800;SDS011;59616;52.170;5.386;2022-07-29T00:05:51;3.88;;;1.50;;
70800;SDS011;59616;52.170;5.386;2022-07-29T00:08:19;5.03;;;1.50;;
70800;SDS011;59616;52.170;5.386;2022-07-29T00:10:46;5.15;;;1.50;;
70800;SDS011;59616;52.170;5.386;2022-07-29T00:13:13;7.80;;;1.60;;
70800;SDS011;59616;52.170;5.386;2022-07-29T00:15:40;4.35;;;1.55;;
70800;SDS011;59616;52.170;5.386;2022-07-29T00:18:07;5.82;;;1.77;;
70800;SDS011;59616;52.170;5.386;2022-07-29T00:20:33;3.45;;;1.38;;
70800;SDS011;59616;52.170;5.386;2022-07-29T00:23:00;5.55;;;1.48;;
70800;SDS011;59616;52.170;5.386;2022-07-29T00:25:27;8.35;;;1.50;;
70800;SDS011;59616;52.170;5.386;2022-07-29T00:27:53;8.88;;;1.58;;
70800;SDS011;59616;52.170;5.386;2022-07-29T00:30:20;4.00;;;1.25;;
70800;SDS011;59616;52.170;5.386;2022-07-29T00:32:47;5.32;;;1.50;;
70800;SDS011;59616;52.170;5.386;2022-07-29T00:35:14;3.70;;;1.40;;
70800;SDS011;59616;52.170;5.386;2022-07-29T00:37:59;3.63;;;1.40;;
70800;SDS011;59616;52.170;5.386;2022-07-29T00:40:27;5.57;;;1.52;;
70800;SDS011;59616;52.170;5.386;2022-07-29T00:42:54;4.18;;;1.10;;
70800;SDS011;59616;52.170;5.386;2022-07-29T00:45:20;5.93;;;1.55;;
70800;SDS011;59616;52.170;5.386;2022-07-29T00:47:50;4.82;;;1.40;;
70800;SDS011;59616;52.170;5.386;2022-07-29T00:50:17;4.10;;;1.40;;
70800;SDS011;59616;52.170;5.386;2022-07-29T00:52:44;5.72;;;1.40;;
70800;SDS011;59616;52.170;5.386;2022-07-29T00:55:12;7.70;;;1.67;;
70800;SDS011;59616;52.170;5.386;2022-07-29T00:57:42;4.13;;;1.40;;
70800;SDS011;59616;52.170;5.386;2022-07-29T01:00:12;4.10;;;1.30;;
70800;SDS011;59616;52.170;5.386;2022-07-29T01:02:44;5.47;;;1.30;;
70800;SDS011;59616;52.170;5.386;2022-07-29T01:05:14;2.83;;;1.25;;
70800;SDS011;59616;52.170;5.386;2022-07-29T01:07:48;5.03;;;1.58;;
70800;SDS011;59616;52.170;5.386;2022-07-29T01:10:18;3.78;;;1.50;;
70800;SDS011;59616;52.170;5.386;2022-07-29T01:12:47;3.53;;;1.33;;
70800;SDS011;59616;52.170;5.386;2022-07-29T01:15:16;4.60;;;1.58;;
70800;SDS011;59616;52.170;5.386;2022-07-29T01:32:08;4.50;;;1.63;;
70800;SDS011;59616;52.170;5.386;2022-07-29T01:35:10;4.85;;;1.40;;
70800;SDS011;59616;52.170;5.386;2022-07-29T01:40:29;5.68;;;1.48;;
70800;SDS011;59616;52.170;5.386;2022-07-29T01:43:13;4.75;;;1.52;;
70800;SDS011;59616;52.170;5.386;2022-07-29T01:45:56;4.60;;;1.48;;
70800;SDS011;59616;52.170;5.386;2022-07-29T01:48:29;4.70;;;1.50;;
70800;SDS011;59616;52.170;5.386;2022-07-29T01:51:08;3.05;;;1.50;;
70800;SDS011;59616;52.170;5.386;2022-07-29T01:56:20;5.88;;;1.55;;
70800;SDS011;59616;52.170;5.386;2022-07-29T01:58:49;4.93;;;1.75;;
70800;SDS011;59616;52.170;5.386;2022-07-29T02:01:18;8.05;;;1.92;;
70800;SDS011;59616;52.170;5.386;2022-07-29T02:03:46;6.50;;;2.20;;
70800;SDS011;59616;52.170;5.386;2022-07-29T02:06:15;5.00;;;1.75;;
70800;SDS011;59616;52.170;5.386;2022-07-29T02:08:45;6.60;;;1.85;;
70800;SDS011;59616;52.170;5.386;2022-07-29T02:11:13;4.60;;;1.80;;
70800;SDS011;59616;52.170;5.386;2022-07-29T02:13:40;6.13;;;1.60;;
70800;SDS011;59616;52.170;5.386;2022-07-29T02:16:08;4.28;;;1.70;;
70800;SDS011;59616;52.170;5.386;2022-07-29T02:18:37;6.68;;;1.83;;
70800;SDS011;59616;52.170;5.386;2022-07-29T02:21:06;4.60;;;1.60;;
70800;SDS011;59616;52.170;5.386;2022-07-29T02:23:40;6.28;;;1.88;;
70800;SDS011;59616;52.170;5.386;2022-07-29T02:26:17;5.53;;;1.70;;
70800;SDS011;59616;52.170;5.386;2022-07-29T02:28:45;8.68;;;2.17;;
70800;SDS011;59616;52.170;5.386;2022-07-29T02:31:13;6.40;;;1.77;;
70800;SDS011;59616;52.170;5.386;2022-07-29T02:33:41;4.10;;;1.70;;
70800;SDS011;59616;52.170;5.386;2022-07-29T02:36:09;5.03;;;1.70;;
70800;SDS011;59616;52.170;5.386;2022-07-29T02:38:36;7.90;;;1.85;;
70800;SDS011;59616;52.170;5.386;2022-07-29T02:41:23;5.30;;;1.90;;
70800;SDS011;59616;52.170;5.386;2022-07-29T02:43:57;5.57;;;1.83;;
70800;SDS011;59616;52.170;5.386;2022-07-29T02:46:31;5.63;;;2.20;;
70800;SDS011;59616;52.170;5.386;2022-07-29T02:49:14;6.45;;;1.80;;
70800;SDS011;59616;52.170;5.386;2022-07-29T02:51:46;5.18;;;1.77;;
70800;SDS011;59616;52.170;5.386;2022-07-29T02:54:20;6.72;;;2.10;;
70800;SDS011;59616;52.170;5.386;2022-07-29T02:56:55;6.45;;;2.05;;
70800;SDS011;59616;52.170;5.386;2022-07-29T02:59:30;7.68;;;2.00;;
70800;SDS011;59616;52.170;5.386;2022-07-29T03:02:01;5.75;;;1.75;;
70800;SDS011;59616;52.170;5.386;2022-07-29T03:04:30;6.47;;;1.85;;
70800;SDS011;59616;52.170;5.386;2022-07-29T03:07:00;5.63;;;1.85;;
70800;SDS011;59616;52.170;5.386;2022-07-29T03:09:28;6.45;;;1.90;;
70800;SDS011;59616;52.170;5.386;2022-07-29T03:11:56;4.72;;;1.63;;
70800;SDS011;59616;52.170;5.386;2022-07-29T03:14:23;10.63;;;2.22;;
70800;SDS011;59616;52.170;5.386;2022-07-29T03:16:51;6.82;;;1.80;;
70800;SDS011;59616;52.170;5.386;2022-07-29T03:19:19;6.03;;;1.80;;
70800;SDS011;59616;52.170;5.386;2022-07-29T03:21:46;6.03;;;1.95;;
70800;SDS011;59616;52.170;5.386;2022-07-29T03:24:33;4.20;;;1.80;;
70800;SDS011;59616;52.170;5.386;2022-07-29T03:27:01;6.25;;;1.75;;
70800;SDS011;59616;52.170;5.386;2022-07-29T03:29:29;6.70;;;1.90;;
70800;SDS011;59616;52.170;5.386;2022-07-29T03:31:59;4.40;;;1.73;;
70800;SDS011;59616;52.170;5.386;2022-07-29T03:34:29;5.35;;;2.35;;
70800;SDS011;59616;52.170;5.386;2022-07-29T03:36:56;5.18;;;1.70;;
70800;SDS011;59616;52.170;5.386;2022-07-29T03:39:23;5.18;;;1.58;;
70800;SDS011;59616;52.170;5.386;2022-07-29T03:41:53;5.88;;;1.50;;
70800;SDS011;59616;52.170;5.386;2022-07-29T03:44:22;5.03;;;1.80;;
70800;SDS011;59616;52.170;5.386;2022-07-29T03:46:51;6.15;;;1.58;;
70800;SDS011;59616;52.170;5.386;2022-07-29T03:49:20;8.52;;;2.10;;
70800;SDS011;59616;52.170;5.386;2022-07-29T03:51:49;6.32;;;2.03;;
70800;SDS011;59616;52.170;5.386;2022-07-29T03:54:16;5.55;;;1.92;;
70800;SDS011;59616;52.170;5.386;2022-07-29T03:56:43;4.78;;;1.73;;
70800;SDS011;59616;52.170;5.386;2022-07-29T03:59:13;6.32;;;2.00;;
70800;SDS011;59616;52.170;5.386;2022-07-29T04:01:42;4.70;;;1.60;;
70800;SDS011;59616;52.170;5.386;2022-07-29T04:04:10;6.13;;;1.88;;
70800;SDS011;59616;52.170;5.386;2022-07-29T04:06:37;5.72;;;1.70;;
70800;SDS011;59616;52.170;5.386;2022-07-29T04:09:05;8.35;;;1.80;;
70800;SDS011;59616;52.170;5.386;2022-07-29T04:11:35;4.60;;;1.90;;
70800;SDS011;59616;52.170;5.386;2022-07-29T04:14:23;4.85;;;1.77;;
70800;SDS011;59616;52.170;5.386;2022-07-29T04:16:51;5.22;;;1.80;;
70800;SDS011;59616;52.170;5.386;2022-07-29T04:19:19;5.53;;;2.17;;
70800;SDS011;59616;52.170;5.386;2022-07-29T04:21:45;6.55;;;1.70;;
70800;SDS011;59616;52.170;5.386;2022-07-29T04:24:12;7.82;;;1.75;;
70800;SDS011;59616;52.170;5.386;2022-07-29T04:26:39;5.50;;;1.75;;
70800;SDS011;59616;52.170;5.386;2022-07-29T04:29:06;6.72;;;1.92;;
70800;SDS011;59616;52.170;5.386;2022-07-29T04:31:33;7.35;;;1.88;;
70800;SDS011;59616;52.170;5.386;2022-07-29T04:34:00;6.00;;;1.85;;
70800;SDS011;59616;52.170;5.386;2022-07-29T04:36:27;6.55;;;1.70;;
70800;SDS011;59616;52.170;5.386;2022-07-29T04:38:55;10.82;;;2.13;;
70800;SDS011;59616;52.170;5.386;2022-07-29T04:41:22;27.90;;;3.50;;
70800;SDS011;59616;52.170;5.386;2022-07-29T04:43:58;20.75;;;3.58;;
70800;SDS011;59616;52.170;5.386;2022-07-29T04:46:27;9.73;;;2.10;;
70800;SDS011;59616;52.170;5.386;2022-07-29T04:48:54;5.97;;;1.83;;
70800;SDS011;59616;52.170;5.386;2022-07-29T04:51:20;8.30;;;1.90;;
70800;SDS011;59616;52.170;5.386;2022-07-29T04:53:47;7.10;;;2.15;;
70800;SDS011;59616;52.170;5.386;2022-07-29T04:56:14;6.70;;;2.10;;
70800;SDS011;59616;52.170;5.386;2022-07-29T04:58:40;4.85;;;1.85;;
70800;SDS011;59616;52.170;5.386;2022-07-29T05:01:07;8.52;;;2.25;;
70800;SDS011;59616;52.170;5.386;2022-07-29T05:03:34;7.25;;;2.17;;
70800;SDS011;59616;52.170;5.386;2022-07-29T05:06:01;7.30;;;2.30;;
70800;SDS011;59616;52.170;5.386;2022-07-29T05:08:27;4.63;;;1.85;;
70800;SDS011;59616;52.170;5.386;2022-07-29T05:10:54;5.40;;;1.92;;
70800;SDS011;59616;52.170;5.386;2022-07-29T05:13:21;6.75;;;2.00;;
70800;SDS011;59616;52.170;5.386;2022-07-29T05:15:47;6.35;;;1.98;;
70800;SDS011;59616;52.170;5.386;2022-07-29T05:18:14;8.55;;;2.22;;
70800;SDS011;59616;52.170;5.386;2022-07-29T05:20:41;8.02;;;2.10;;
70800;SDS011;59616;52.170;5.386;2022-07-29T05:23:08;6.70;;;2.25;;
70800;SDS011;59616;52.170;5.386;2022-07-29T05:25:35;6.50;;;2.10;;
70800;SDS011;59616;52.170;5.386;2022-07-29T05:28:10;5.95;;;2.17;;
70800;SDS011;59616;52.170;5.386;2022-07-29T05:30:37;6.63;;;2.05;;
70800;SDS011;59616;52.170;5.386;2022-07-29T05:33:04;8.23;;;2.25;;
70800;SDS011;59616;52.170;5.386;2022-07-29T05:35:32;7.57;;;2.17;;
70800;SDS011;59616;52.170;5.386;2022-07-29T05:38:01;6.38;;;2.15;;
70800;SDS011;59616;52.170;5.386;2022-07-29T05:40:27;4.80;;;2.00;;
70800;SDS011;59616;52.170;5.386;2022-07-29T05:42:54;37.35;;;3.72;;
70800;SDS011;59616;52.170;5.386;2022-07-29T05:45:21;9.00;;;2.55;;
70800;SDS011;59616;52.170;5.386;2022-07-29T05:47:49;11.52;;;2.40;;
70800;SDS011;59616;52.170;5.386;2022-07-29T05:50:16;6.10;;;2.17;;
70800;SDS011;59616;52.170;5.386;2022-07-29T05:52:42;7.32;;;2.28;;
70800;SDS011;59616;52.170;5.386;2022-07-29T05:55:09;9.40;;;2.60;;
70800;SDS011;59616;52.170;5.386;2022-07-29T05:57:36;6.50;;;2.28;;
70800;SDS011;59616;52.170;5.386;2022-07-29T06:00:03;6.20;;;2.28;;
70800;SDS011;59616;52.170;5.386;2022-07-29T06:02:37;8.43;;;2.38;;
70800;SDS011;59616;52.170;5.386;2022-07-29T06:05:04;7.07;;;2.50;;
70800;SDS011;59616;52.170;5.386;2022-07-29T06:07:35;8.55;;;2.40;;
70800;SDS011;59616;52.170;5.386;2022-07-29T06:10:04;7.55;;;2.65;;
70800;SDS011;59616;52.170;5.386;2022-07-29T06:12:31;6.00;;;2.35;;
70800;SDS011;59616;52.170;5.386;2022-07-29T06:14:57;5.97;;;2.47;;
70800;SDS011;59616;52.170;5.386;2022-07-29T06:17:24;7.88;;;2.50;;
70800;SDS011;59616;52.170;5.386;2022-07-29T06:19:51;8.02;;;2.45;;
70800;SDS011;59616;52.170;5.386;2022-07-29T06:22:18;6.25;;;2.30;;
70800;SDS011;59616;52.170;5.386;2022-07-29T06:24:45;5.60;;;2.17;;
70800;SDS011;59616;52.170;5.386;2022-07-29T06:27:11;6.43;;;2.35;;
70800;SDS011;59616;52.170;5.386;2022-07-29T06:29:38;7.43;;;2.50;;
70800;SDS011;59616;52.170;5.386;2022-07-29T06:32:05;5.07;;;2.10;;
70800;SDS011;59616;52.170;5.386;2022-07-29T06:34:32;7.90;;;2.33;;
70800;SDS011;59616;52.170;5.386;2022-07-29T06:36:59;5.18;;;2.35;;
70800;SDS011;59616;52.170;5.386;2022-07-29T06:39:25;8.57;;;2.20;;
70800;SDS011;59616;52.170;5.386;2022-07-29T06:41:52;5.15;;;2.13;;
70800;SDS011;59616;52.170;5.386;2022-07-29T06:44:23;6.20;;;2.50;;
70800;SDS011;59616;52.170;5.386;2022-07-29T06:46:50;6.50;;;2.50;;
70800;SDS011;59616;52.170;5.386;2022-07-29T06:49:17;6.18;;;2.35;;
70800;SDS011;59616;52.170;5.386;2022-07-29T06:51:44;7.00;;;2.55;;
70800;SDS011;59616;52.170;5.386;2022-07-29T06:54:11;5.28;;;2.13;;
70800;SDS011;59616;52.170;5.386;2022-07-29T06:56:38;5.45;;;2.17;;
70800;SDS011;59616;52.170;5.386;2022-07-29T06:59:08;8.02;;;2.40;;
70800;SDS011;59616;52.170;5.386;2022-07-29T07:01:36;7.78;;;2.45;;
70800;SDS011;59616;52.170;5.386;2022-07-29T07:04:04;7.03;;;2.40;;
70800;SDS011;59616;52.170;5.386;2022-07-29T07:06:31;6.45;;;2.30;;
70800;SDS011;59616;52.170;5.386;2022-07-29T07:08:58;7.85;;;2.20;;
70800;SDS011;59616;52.170;5.386;2022-07-29T07:11:25;6.50;;;2.35;;
70800;SDS011;59616;52.170;5.386;2022-07-29T07:13:52;6.45;;;2.40;;
70800;SDS011;59616;52.170;5.386;2022-07-29T07:16:24;6.43;;;2.50;;
70800;SDS011;59616;52.170;5.386;2022-07-29T07:18:51;8.45;;;2.50;;
70800;SDS011;59616;52.170;5.386;2022-07-29T07:21:18;6.47;;;2.28;;
70800;SDS011;59616;52.170;5.386;2022-07-29T07:23:45;6.97;;;2.60;;
70800;SDS011;59616;52.170;5.386;2022-07-29T07:26:12;8.68;;;2.40;;
70800;SDS011;59616;52.170;5.386;2022-07-29T07:28:39;4.82;;;2.30;;
70800;SDS011;59616;52.170;5.386;2022-07-29T07:31:05;9.35;;;2.35;;
70800;SDS011;59616;52.170;5.386;2022-07-29T07:33:32;5.03;;;2.40;;
70800;SDS011;59616;52.170;5.386;2022-07-29T07:35:59;5.70;;;2.20;;
70800;SDS011;59616;52.170;5.386;2022-07-29T07:38:25;6.95;;;2.60;;
70800;SDS011;59616;52.170;5.386;2022-07-29T07:40:52;6.57;;;2.20;;
70800;SDS011;59616;52.170;5.386;2022-07-29T07:43:19;8.38;;;2.78;;
70800;SDS011;59616;52.170;5.386;2022-07-29T07:45:46;8.02;;;2.88;;
70800;SDS011;59616;52.170;5.386;2022-07-29T07:48:12;5.82;;;2.17;;
70800;SDS011;59616;52.170;5.386;2022-07-29T07:50:39;7.22;;;2.50;;
70800;SDS011;59616;52.170;5.386;2022-07-29T07:53:06;6.07;;;2.50;;
70800;SDS011;59616;52.170;5.386;2022-07-29T07:55:33;7.28;;;2.28;;
70800;SDS011;59616;52.170;5.386;2022-07-29T07:58:19;8.30;;;2.50;;
70800;SDS011;59616;52.170;5.386;2022-07-29T08:00:46;5.97;;;2.40;;
70800;SDS011;59616;52.170;5.386;2022-07-29T08:03:13;7.70;;;3.05;;
70800;SDS011;59616;52.170;5.386;2022-07-29T08:05:42;6.82;;;2.38;;
70800;SDS011;59616;52.170;5.386;2022-07-29T08:08:09;8.18;;;2.75;;
70800;SDS011;59616;52.170;5.386;2022-07-29T08:10:36;6.70;;;2.60;;
70800;SDS011;59616;52.170;5.386;2022-07-29T08:13:22;6.97;;;2.50;;
70800;SDS011;59616;52.170;5.386;2022-07-29T08:15:51;6.75;;;2.50;;
70800;SDS011;59616;52.170;5.386;2022-07-29T08:18:24;5.95;;;2.58;;
70800;SDS011;59616;52.170;5.386;2022-07-29T08:20:53;7.00;;;2.60;;
70800;SDS011;59616;52.170;5.386;2022-07-29T08:23:20;6.93;;;2.53;;
70800;SDS011;59616;52.170;5.386;2022-07-29T08:25:50;8.18;;;2.85;;
70800;SDS011;59616;52.170;5.386;2022-07-29T08:28:20;7.93;;;2.50;;
70800;SDS011;59616;52.170;5.386;2022-07-29T08:30:51;8.45;;;2.70;;
70800;SDS011;59616;52.170;5.386;2022-07-29T08:33:17;7.47;;;2.95;;
70800;SDS011;59616;52.170;5.386;2022-07-29T08:35:44;12.15;;;3.03;;
70800;SDS011;59616;52.170;5.386;2022-07-29T08:38:11;6.28;;;2.55;;
70800;SDS011;59616;52.170;5.386;2022-07-29T08:40:38;7.30;;;2.50;;
70800;SDS011;59616;52.170;5.386;2022-07-29T08:43:06;7.50;;;2.75;;
70800;SDS011;59616;52.170;5.386;2022-07-29T08:45:37;7.68;;;2.80;;
70800;SDS011;59616;52.170;5.386;2022-07-29T08:48:17;8.80;;;2.58;;
70800;SDS011;59616;52.170;5.386;2022-07-29T08:50:46;7.47;;;2.53;;
70800;SDS011;59616;52.170;5.386;2022-07-29T08:53:17;8.00;;;2.78;;
70800;SDS011;59616;52.170;5.386;2022-07-29T08:55:45;5.22;;;2.40;;
70800;SDS011;59616;52.170;5.386;2022-07-29T08:58:14;9.15;;;2.60;;
70800;SDS011;59616;52.170;5.386;2022-07-29T09:00:45;8.25;;;2.65;;
70800;SDS011;59616;52.170;5.386;2022-07-29T09:03:15;8.25;;;2.70;;
70800;SDS011;59616;52.170;5.386;2022-07-29T09:05:47;6.22;;;2.40;;
70800;SDS011;59616;52.170;5.386;2022-07-29T09:08:17;7.13;;;2.63;;
70800;SDS011;59616;52.170;5.386;2022-07-29T09:10:44;7.05;;;2.63;;
70800;SDS011;59616;52.170;5.386;2022-07-29T09:13:11;9.05;;;2.42;;
70800;SDS011;59616;52.170;5.386;2022-07-29T09:15:38;6.82;;;2.60;;
70800;SDS011;59616;52.170;5.386;2022-07-29T09:18:04;7.75;;;2.60;;
70800;SDS011;59616;52.170;5.386;2022-07-29T09:20:31;6.68;;;2.30;;
70800;SDS011;59616;52.170;5.386;2022-07-29T09:23:16;9.70;;;2.30;;
70800;SDS011;59616;52.170;5.386;2022-07-29T09:25:49;7.07;;;2.50;;
70800;SDS011;59616;52.170;5.386;2022-07-29T09:28:17;6.70;;;2.35;;
70800;SDS011;59616;52.170;5.386;2022-07-29T09:30:51;6.70;;;2.35;;
70800;SDS011;59616;52.170;5.386;2022-07-29T09:33:18;9.18;;;2.35;;
70800;SDS011;59616;52.170;5.386;2022-07-29T09:35:58;6.85;;;2.50;;
70800;SDS011;59616;52.170;5.386;2022-07-29T09:38:27;9.45;;;3.33;;
70800;SDS011;59616;52.170;5.386;2022-07-29T09:40:57;7.05;;;2.80;;
70800;SDS011;59616;52.170;5.386;2022-07-29T09:43:31;11.15;;;3.22;;
70800;SDS011;59616;52.170;5.386;2022-07-29T09:46:16;9.20;;;3.10;;
70800;SDS011;59616;52.170;5.386;2022-07-29T09:48:43;7.68;;;2.90;;
70800;SDS011;59616;52.170;5.386;2022-07-29T09:51:19;7.78;;;3.05;;
70800;SDS011;59616;52.170;5.386;2022-07-29T09:53:54;10.98;;;3.08;;
70800;SDS011;59616;52.170;5.386;2022-07-29T09:56:40;7.30;;;3.17;;
70800;SDS011;59616;52.170;5.386;2022-07-29T09:59:08;9.80;;;3.40;;
70800;SDS011;59616;52.170;5.386;2022-07-29T10:01:35;7.32;;;2.80;;
70800;SDS011;59616;52.170;5.386;2022-07-29T10:04:03;8.38;;;3.50;;
70800;SDS011;59616;52.170;5.386;2022-07-29T10:06:30;7.38;;;3.28;;
70800;SDS011;59616;52.170;5.386;2022-07-29T10:09:07;7.65;;;3.25;;
70800;SDS011;59616;52.170;5.386;2022-07-29T10:11:35;9.32;;;3.33;;
70800;SDS011;59616;52.170;5.386;2022-07-29T10:14:14;9.18;;;3.10;;
70800;SDS011;59616;52.170;5.386;2022-07-29T10:16:42;11.55;;;3.00;;
70800;SDS011;59616;52.170;5.386;2022-07-29T10:19:09;8.27;;;3.20;;
70800;SDS011;59616;52.170;5.386;2022-07-29T10:21:36;11.05;;;3.17;;
70800;SDS011;59616;52.170;5.386;2022-07-29T10:24:05;8.65;;;2.70;;
70800;SDS011;59616;52.170;5.386;2022-07-29T10:26:40;6.82;;;2.70;;
70800;SDS011;59616;52.170;5.386;2022-07-29T10:29:08;7.93;;;3.22;;
70800;SDS011;59616;52.170;5.386;2022-07-29T10:35:05;9.75;;;3.20;;
70800;SDS011;59616;52.170;5.386;2022-07-29T10:43:27;7.38;;;3.00;;
70800;SDS011;59616;52.170;5.386;2022-07-29T10:45:59;10.23;;;3.28;;
70800;SDS011;59616;52.170;5.386;2022-07-29T10:48:26;8.55;;;3.15;;
70800;SDS011;59616;52.170;5.386;2022-07-29T10:51:00;9.63;;;2.90;;
70800;SDS011;59616;52.170;5.386;2022-07-29T10:53:45;7.05;;;2.95;;
70800;SDS011;59616;52.170;5.386;2022-07-29T10:56:25;7.47;;;3.22;;
70800;SDS011;59616;52.170;5.386;2022-07-29T11:01:50;8.23;;;2.90;;
70800;SDS011;59616;52.170;5.386;2022-07-29T11:07:12;8.60;;;2.90;;
70800;SDS011;59616;52.170;5.386;2022-07-29T11:09:40;9.05;;;3.45;;
70800;SDS011;59616;52.170;5.386;2022-07-29T11:15:22;7.90;;;3.60;;
70800;SDS011;59616;52.170;5.386;2022-07-29T11:20:39;12.93;;;3.22;;
70800;SDS011;59616;52.170;5.386;2022-07-29T11:31:34;8.02;;;3.72;;
70800;SDS011;59616;52.170;5.386;2022-07-29T11:39:40;7.25;;;3.15;;
70800;SDS011;59616;52.170;5.386;2022-07-29T11:47:53;8.73;;;3.40;;
70800;SDS011;59616;52.170;5.386;2022-07-29T11:50:44;8.43;;;2.60;;
70800;SDS011;59616;52.170;5.386;2022-07-29T11:53:13;7.93;;;2.85;;
70800;SDS011;59616;52.170;5.386;2022-07-29T11:55:41;8.25;;;2.70;;
70800;SDS011;59616;52.170;5.386;2022-07-29T11:58:20;9.02;;;3.20;;
70800;SDS011;59616;52.170;5.386;2022-07-29T12:00:51;5.78;;;2.35;;
70800;SDS011;59616;52.170;5.386;2022-07-29T12:03:24;8.20;;;2.80;;
70800;SDS011;59616;52.170;5.386;2022-07-29T12:06:01;8.43;;;2.42;;
70800;SDS011;59616;52.170;5.386;2022-07-29T12:08:41;7.60;;;2.55;;
70800;SDS011;59616;52.170;5.386;2022-07-29T12:11:19;6.45;;;2.47;;
70800;SDS011;59616;52.170;5.386;2022-07-29T12:13:52;6.18;;;2.60;;
70800;SDS011;59616;52.170;5.386;2022-07-29T12:16:20;5.90;;;2.38;;
70800;SDS011;59616;52.170;5.386;2022-07-29T12:21:24;7.65;;;2.63;;
70800;SDS011;59616;52.170;5.386;2022-07-29T12:23:54;7.38;;;3.00;;
70800;SDS011;59616;52.170;5.386;2022-07-29T12:26:30;6.47;;;2.40;;
70800;SDS011;59616;52.170;5.386;2022-07-29T12:28:59;7.30;;;2.47;;
70800;SDS011;59616;52.170;5.386;2022-07-29T12:31:29;7.65;;;2.75;;
70800;SDS011;59616;52.170;5.386;2022-07-29T12:34:10;8.82;;;2.90;;
70800;SDS011;59616;52.170;5.386;2022-07-29T12:36:38;7.30;;;2.80;;
70800;SDS011;59616;52.170;5.386;2022-07-29T12:39:07;9.40;;;2.65;;
70800;SDS011;59616;52.170;5.386;2022-07-29T12:41:35;10.88;;;3.17;;
70800;SDS011;59616;52.170;5.386;2022-07-29T12:44:02;11.00;;;2.55;;
70800;SDS011;59616;52.170;5.386;2022-07-29T12:46:29;7.07;;;2.70;;
70800;SDS011;59616;52.170;5.386;2022-07-29T12:48:56;8.60;;;3.15;;
70800;SDS011;59616;52.170;5.386;2022-07-29T12:51:34;6.63;;;2.75;;
70800;SDS011;59616;52.170;5.386;2022-07-29T12:54:12;7.15;;;2.55;;
70800;SDS011;59616;52.170;5.386;2022-07-29T12:56:42;7.97;;;2.30;;
70800;SDS011;59616;52.170;5.386;2022-07-29T12:59:11;8.02;;;2.75;;
70800;SDS011;59616;52.170;5.386;2022-07-29T13:01:39;7.10;;;2.60;;
70800;SDS011;59616;52.170;5.386;2022-07-29T13:04:06;7.07;;;2.63;;
70800;SDS011;59616;52.170;5.386;2022-07-29T13:06:41;7.28;;;3.10;;
70800;SDS011;59616;52.170;5.386;2022-07-29T13:09:20;5.95;;;2.90;;
70800;SDS011;59616;52.170;5.386;2022-07-29T13:11:50;5.60;;;2.40;;
70800;SDS011;59616;52.170;5.386;2022-07-29T13:17:02;11.23;;;2.75;;
70800;SDS011;59616;52.170;5.386;2022-07-29T13:19:32;9.35;;;2.90;;
70800;SDS011;59616;52.170;5.386;2022-07-29T13:22:01;8.73;;;3.33;;
70800;SDS011;59616;52.170;5.386;2022-07-29T13:24:28;7.75;;;3.28;;
70800;SDS011;59616;52.170;5.386;2022-07-29T13:26:55;11.00;;;3.97;;
70800;SDS011;59616;52.170;5.386;2022-07-29T13:29:22;9.07;;;3.85;;
70800;SDS011;59616;52.170;5.386;2022-07-29T13:31:52;9.10;;;3.70;;
70800;SDS011;59616;52.170;5.386;2022-07-29T13:34:19;12.57;;;3.97;;
70800;SDS011;59616;52.170;5.386;2022-07-29T13:36:48;7.05;;;3.53;;
70800;SDS011;59616;52.170;5.386;2022-07-29T13:39:14;7.13;;;3.15;;
70800;SDS011;59616;52.170;5.386;2022-07-29T13:41:41;7.75;;;3.00;;
70800;SDS011;59616;52.170;5.386;2022-07-29T13:44:08;10.27;;;4.30;;
70800;SDS011;59616;52.170;5.386;2022-07-29T13:46:35;7.95;;;3.60;;
70800;SDS011;59616;52.170;5.386;2022-07-29T13:49:05;9.15;;;3.72;;
70800;SDS011;59616;52.170;5.386;2022-07-29T13:51:32;9.38;;;3.70;;
70800;SDS011;59616;52.170;5.386;2022-07-29T13:53:58;11.60;;;3.95;;
70800;SDS011;59616;52.170;5.386;2022-07-29T13:56:25;9.20;;;3.67;;
70800;SDS011;59616;52.170;5.386;2022-07-29T13:58:52;6.78;;;3.25;;
70800;SDS011;59616;52.170;5.386;2022-07-29T14:01:19;7.82;;;3.15;;
70800;SDS011;59616;52.170;5.386;2022-07-29T14:03:45;11.82;;;3.78;;
70800;SDS011;59616;52.170;5.386;2022-07-29T14:06:12;10.35;;;3.83;;
70800;SDS011;59616;52.170;5.386;2022-07-29T14:08:42;9.35;;;3.30;;
70800;SDS011;59616;52.170;5.386;2022-07-29T14:11:09;9.50;;;3.38;;
70800;SDS011;59616;52.170;5.386;2022-07-29T14:13:35;8.68;;;3.40;;
70800;SDS011;59616;52.170;5.386;2022-07-29T14:16:02;9.10;;;3.40;;
70800;SDS011;59616;52.170;5.386;2022-07-29T14:18:29;8.82;;;3.00;;
70800;SDS011;59616;52.170;5.386;2022-07-29T14:20:56;8.30;;;3.00;;
70800;SDS011;59616;52.170;5.386;2022-07-29T14:23:23;8.27;;;2.92;;
70800;SDS011;59616;52.170;5.386;2022-07-29T14:25:51;7.40;;;2.72;;
70800;SDS011;59616;52.170;5.386;2022-07-29T14:28:18;7.82;;;2.70;;
70800;SDS011;59616;52.170;5.386;2022-07-29T14:30:45;8.02;;;3.38;;
70800;SDS011;59616;52.170;5.386;2022-07-29T14:33:12;7.72;;;2.67;;
70800;SDS011;59616;52.170;5.386;2022-07-29T14:35:39;9.00;;;3.50;;
70800;SDS011;59616;52.170;5.386;2022-07-29T14:38:05;6.63;;;2.40;;
70800;SDS011;59616;52.170;5.386;2022-07-29T14:40:32;7.55;;;2.47;;
70800;SDS011;59616;52.170;5.386;2022-07-29T14:42:59;6.45;;;2.60;;
70800;SDS011;59616;52.170;5.386;2022-07-29T14:45:26;9.13;;;2.85;;
70800;SDS011;59616;52.170;5.386;2022-07-29T14:47:54;5.70;;;2.25;;
70800;SDS011;59616;52.170;5.386;2022-07-29T14:50:22;11.35;;;3.17;;
70800;SDS011;59616;52.170;5.386;2022-07-29T14:52:57;6.30;;;2.28;;
70800;SDS011;59616;52.170;5.386;2022-07-29T14:55:25;7.50;;;2.80;;
70800;SDS011;59616;52.170;5.386;2022-07-29T14:57:52;8.10;;;2.90;;
70800;SDS011;59616;52.170;5.386;2022-07-29T15:00:33;8.65;;;2.90;;
70800;SDS011;59616;52.170;5.386;2022-07-29T15:03:00;6.85;;;2.55;;
70800;SDS011;59616;52.170;5.386;2022-07-29T15:05:28;6.72;;;2.40;;
70800;SDS011;59616;52.170;5.386;2022-07-29T15:07:58;8.57;;;2.67;;
70800;SDS011;59616;52.170;5.386;2022-07-29T15:10:26;7.72;;;2.40;;
70800;SDS011;59616;52.170;5.386;2022-07-29T15:12:53;6.32;;;1.98;;
70800;SDS011;59616;52.170;5.386;2022-07-29T15:15:20;7.63;;;2.42;;
70800;SDS011;59616;52.170;5.386;2022-07-29T15:17:47;7.90;;;2.45;;
70800;SDS011;59616;52.170;5.386;2022-07-29T15:20:15;7.93;;;2.58;;
70800;SDS011;59616;52.170;5.386;2022-07-29T15:22:51;8.82;;;2.13;;
70800;SDS011;59616;52.170;5.386;2022-07-29T15:25:22;7.22;;;2.00;;
70800;SDS011;59616;52.170;5.386;2022-07-29T15:27:50;6.18;;;2.00;;
70800;SDS011;59616;52.170;5.386;2022-07-29T15:30:19;7.22;;;2.00;;
70800;SDS011;59616;52.170;5.386;2022-07-29T15:32:59;4.82;;;1.83;;
70800;SDS011;59616;52.170;5.386;2022-07-29T15:35:28;5.97;;;1.92;;
70800;SDS011;59616;52.170;5.386;2022-07-29T15:37:54;5.15;;;1.85;;
70800;SDS011;59616;52.170;5.386;2022-07-29T15:40:21;7.55;;;1.80;;
70800;SDS011;59616;52.170;5.386;2022-07-29T15:42:48;5.03;;;1.98;;
70800;SDS011;59616;52.170;5.386;2022-07-29T15:45:14;8.45;;;1.90;;
70800;SDS011;59616;52.170;5.386;2022-07-29T15:47:42;5.03;;;2.33;;
70800;SDS011;59616;52.170;5.386;2022-07-29T15:50:12;9.05;;;2.67;;
70800;SDS011;59616;52.170;5.386;2022-07-29T15:52:42;7.25;;;2.20;;
70800;SDS011;59616;52.170;5.386;2022-07-29T15:55:08;5.93;;;1.70;;
70800;SDS011;59616;52.170;5.386;2022-07-29T15:57:35;6.20;;;1.90;;
70800;SDS011;59616;52.170;5.386;2022-07-29T16:00:03;5.00;;;1.80;;
70800;SDS011;59616;52.170;5.386;2022-07-29T16:02:33;7.00;;;2.10;;
70800;SDS011;59616;52.170;5.386;2022-07-29T16:05:00;5.60;;;2.08;;
70800;SDS011;59616;52.170;5.386;2022-07-29T16:07:26;4.72;;;1.52;;